createdAt,value
2019-03-13T00:01:54.159Z,7
2019-03-13T00:17:07.199Z,7
2019-03-13T00:32:20.288Z,6.9
2019-03-13T00:47:31.889Z,7
2019-03-13T01:02:46.438Z,7.8
2019-03-13T01:17:59.896Z,8.4
2019-03-13T01:33:13.447Z,8.5
2019-03-13T01:48:18.725Z,8.4
2019-03-13T02:03:40.516Z,8.4
2019-03-13T02:18:54.018Z,8.3
2019-03-13T02:34:07.612Z,8.4
2019-03-13T02:49:21.118Z,7.9
2019-03-13T03:04:32.957Z,7.7
2019-03-13T03:19:47.742Z,7.8
2019-03-13T03:35:01.295Z,7.8
2019-03-13T03:50:14.431Z,7.9
2019-03-13T04:05:19.409Z,7.9
2019-03-13T04:20:41.183Z,7.9
2019-03-13T04:35:54.535Z,7.5
2019-03-13T04:51:07.573Z,7
2019-03-13T05:06:20.543Z,6.7
2019-03-13T05:21:32.245Z,6.4
2019-03-13T05:36:46.273Z,6.1
2019-03-13T05:51:58.869Z,5.8
2019-03-13T06:07:11.734Z,5.8
2019-03-13T06:22:16.344Z,5.8
2019-03-13T06:37:36.562Z,5.8
2019-03-13T06:52:49.229Z,6
2019-03-13T07:08:01.953Z,6.3
2019-03-13T07:23:08.901Z,6.7
2019-03-13T07:38:27.826Z,7.1
2019-03-13T07:53:40.983Z,7.3
2019-03-13T08:08:54.169Z,7.5
2019-03-13T08:24:03.257Z,7.9
2019-03-13T08:39:20.995Z,8.2
2019-03-13T08:54:34.619Z,8.4
2019-03-13T09:09:48.253Z,8.5
2019-03-13T09:24:52.494Z,9
2019-03-13T09:40:15.802Z,9.3
2019-03-13T09:55:29.703Z,9.2
2019-03-13T10:10:43.557Z,9.2
2019-03-13T10:25:57.407Z,9.2
2019-03-13T10:41:09.959Z,10.4
2019-03-13T10:56:25.965Z,10.2
2019-03-13T11:11:40.008Z,10.2
2019-03-13T11:26:54.141Z,9.8
2019-03-13T11:41:59.735Z,9.6
2019-03-13T11:57:22.351Z,10.8
2019-03-13T12:12:36.913Z,10.8
2019-03-13T12:27:51.228Z,10
2019-03-13T12:43:05.406Z,10.5
2019-03-13T12:58:18.341Z,11.6
2019-03-13T13:13:35.220Z,11.9
2019-03-13T13:28:50.696Z,12
2019-03-13T13:44:06.175Z,12.5
2019-03-13T13:59:10.347Z,11.9
2019-03-13T14:14:36.001Z,11.4
2019-03-13T14:29:50.713Z,11.3
2019-03-13T14:45:05.382Z,11.2
2019-03-13T15:00:19.870Z,10.5
2019-03-13T15:15:29.321Z,10.2
2019-03-13T15:30:48.264Z,10
2019-03-13T15:46:02.397Z,9.8
2019-03-13T16:01:16.486Z,9.8
2019-03-13T16:16:18.978Z,9.5
2019-03-13T16:31:46.152Z,9.4
2019-03-13T16:46:58.357Z,9.3
2019-03-13T17:02:12.234Z,9.2
2019-03-13T17:17:26.010Z,9.1
2019-03-13T17:32:35.098Z,9.2
2019-03-13T17:47:53.671Z,9
2019-03-13T18:03:07.488Z,8.9
2019-03-13T18:18:21.139Z,8.7
2019-03-13T18:33:23.100Z,8.7
2019-03-13T18:48:48.414Z,8.6
2019-03-13T19:04:02.004Z,8.5
2019-03-13T19:19:15.651Z,8.4
2019-03-13T19:34:29.061Z,8.3
2019-03-13T19:49:37.830Z,8.2
2019-03-13T20:04:56.134Z,8.1
2019-03-13T20:20:09.578Z,8
2019-03-13T20:35:22.937Z,7.9
2019-03-13T20:50:35.530Z,7.7
2019-03-13T21:05:49.736Z,7.6
2019-03-13T21:21:02.751Z,7.6
2019-03-13T21:36:16.073Z,8.2
2019-03-13T21:51:29.469Z,7.8
2019-03-13T22:06:38.236Z,7.6
2019-03-13T22:21:56.426Z,7.6
2019-03-13T22:37:09.315Z,7.6
2019-03-13T22:52:22.393Z,7.6
2019-03-13T23:07:24.507Z,7.5
2019-03-13T23:22:49.006Z,7.4
2019-03-13T23:38:02.048Z,7.3
2019-03-13T23:53:15.166Z,7.2
